Terminal Aerodrome Forecast
Issued by NWS Tulsa, OK

Home | Current Version | Previous Version | Text Only | Print | Product List | Glossary Off
Versions: 1 2 3 4 5 6 7 8 9 10 11 12 13 14 15 16

000
FTUS44 KTSA 240500
TAFTUL
TAF
KTUL 240520Z 2406/2506 16003KT P6SM BKN060
     FM241500 18010KT P6SM SCT250
     FM250200 17005KT P6SM SKC=

USA.gov is the U.S. government's official web portal to all federal, state and local government web resources and services.